createdAt,value
2022-11-29T00:01:04.544Z,58.62
2022-11-29T00:03:31.962Z,58.65
2022-11-29T00:06:11.175Z,58.47
2022-11-29T00:08:38.379Z,58.27
2022-11-29T00:11:45.266Z,58.32
2022-11-29T00:14:13.828Z,58.25
2022-11-29T00:16:43.533Z,58.50
2022-11-29T00:19:11.078Z,58.57
2022-11-29T00:21:37.991Z,58.35
2022-11-29T00:24:05.270Z,58.63
2022-11-29T00:26:32.011Z,58.18
2022-11-29T00:28:59.106Z,58.30
2022-11-29T00:31:27.694Z,58.54
2022-11-29T00:33:54.809Z,58.45
2022-11-29T00:36:21.659Z,58.60
2022-11-29T00:38:48.663Z,58.47
2022-11-29T00:41:15.391Z,58.53
2022-11-29T00:43:42.554Z,58.43
2022-11-29T00:46:09.400Z,58.42
2022-11-29T00:48:36.756Z,58.19
2022-11-29T00:51:04.211Z,58.45
2022-11-29T00:53:31.627Z,58.63
2022-11-29T00:55:58.426Z,58.57
2022-11-29T00:58:25.554Z,58.73
2022-11-29T01:00:55.496Z,58.50
2022-11-29T01:03:22.719Z,58.59
2022-11-29T01:05:49.503Z,58.67
2022-11-29T01:08:17.246Z,58.66
2022-11-29T01:10:44.103Z,58.23
2022-11-29T01:13:11.219Z,58.35
2022-11-29T01:15:37.995Z,58.28
2022-11-29T01:18:05.134Z,58.41
2022-11-29T01:20:31.935Z,58.50
2022-11-29T01:22:59.014Z,58.16
2022-11-29T01:25:25.786Z,58.50
2022-11-29T01:27:52.845Z,58.57
2022-11-29T01:30:19.556Z,58.47
2022-11-29T01:32:46.599Z,58.64
2022-11-29T01:35:13.307Z,58.43
2022-11-29T01:37:40.420Z,58.35
2022-11-29T01:40:07.707Z,58.48
2022-11-29T01:42:34.775Z,58.67
2022-11-29T01:45:04.236Z,58.34
2022-11-29T01:47:31.630Z,58.43
2022-11-29T01:49:58.363Z,58.32
2022-11-29T01:52:26.380Z,58.48
2022-11-29T01:54:56.572Z,58.29
2022-11-29T01:57:23.686Z,58.43
2022-11-29T02:00:00.737Z,58.34
2022-11-29T02:02:40.237Z,58.26
2022-11-29T02:05:07.666Z,58.27
2022-11-29T02:07:34.862Z,58.16
2022-11-29T02:10:02.226Z,58.40
2022-11-29T02:12:31.218Z,58.21
2022-11-29T02:15:08.073Z,58.57
2022-11-29T02:17:48.420Z,58.40
2022-11-29T02:20:40.034Z,58.13
2022-11-29T02:23:28.963Z,58.57
2022-11-29T02:26:20.222Z,58.62
2022-11-29T02:29:10.374Z,58.30
2022-11-29T02:31:50.806Z,58.80
2022-11-29T02:34:33.167Z,58.63
2022-11-29T02:37:27.226Z,58.42
2022-11-29T02:40:28.401Z,58.58
2022-11-29T02:43:36.665Z,58.54
2022-11-29T02:46:25.079Z,58.27
2022-11-29T02:49:00.923Z,58.50
2022-11-29T02:51:34.770Z,58.46
2022-11-29T02:54:06.702Z,58.77
2022-11-29T02:56:52.276Z,58.56
2022-11-29T02:59:33.974Z,58.33
2022-11-29T03:02:12.237Z,58.61
2022-11-29T03:04:51.433Z,58.39
2022-11-29T03:07:24.104Z,58.48
2022-11-29T03:10:13.533Z,58.29
2022-11-29T03:12:42.282Z,58.57
2022-11-29T03:15:31.871Z,58.46
2022-11-29T03:18:33.013Z,58.33
2022-11-29T03:21:08.942Z,58.41
2022-11-29T03:23:48.796Z,58.50
2022-11-29T03:26:34.344Z,58.55
2022-11-29T03:29:16.629Z,58.35
2022-11-29T03:31:52.275Z,58.70
2022-11-29T03:34:34.304Z,58.54
2022-11-29T03:37:07.121Z,58.34
2022-11-29T03:39:41.584Z,58.20
2022-11-29T03:42:11.413Z,58.59
2022-11-29T03:44:41.566Z,58.31
2022-11-29T03:47:10.349Z,58.65
2022-11-29T03:49:42.825Z,58.06
2022-11-29T03:52:16.466Z,58.45
2022-11-29T03:55:11.385Z,58.72
2022-11-29T03:57:57.772Z,58.73
2022-11-29T04:00:25.033Z,58.59
2022-11-29T04:03:33.802Z,58.59
2022-11-29T04:06:38.447Z,58.49
2022-11-29T04:09:05.116Z,58.79
2022-11-29T04:11:55.993Z,58.73
2022-11-29T04:14:34.815Z,58.44
2022-11-29T04:17:10.612Z,58.86
2022-11-29T04:20:14.678Z,58.78
2022-11-29T04:22:44.071Z,58.50
2022-11-29T04:25:33.932Z,58.55
2022-11-29T04:28:09.459Z,58.42
2022-11-29T04:31:12.661Z,58.72
2022-11-29T04:33:42.650Z,59.04
2022-11-29T04:36:31.468Z,58.57
2022-11-29T04:39:04.480Z,58.65
2022-11-29T04:41:51.641Z,58.65
2022-11-29T04:44:44.031Z,58.99
2022-11-29T04:47:38.076Z,58.49
2022-11-29T04:50:27.035Z,58.70
2022-11-29T04:53:09.964Z,58.63
2022-11-29T04:55:52.091Z,58.73
2022-11-29T04:58:27.158Z,58.63
2022-11-29T05:01:25.426Z,58.74
2022-11-29T05:04:16.915Z,58.81
2022-11-29T05:07:02.261Z,58.68
2022-11-29T05:10:01.762Z,59.02
2022-11-29T05:12:47.728Z,58.63
2022-11-29T05:15:27.551Z,59.19
2022-11-29T05:18:16.374Z,59.17
2022-11-29T05:21:04.435Z,58.87
2022-11-29T05:23:59.314Z,59.08
2022-11-29T05:26:50.962Z,59.01
2022-11-29T05:29:40.047Z,59.17
2022-11-29T05:32:21.678Z,59.02
2022-11-29T05:35:00.646Z,58.83
2022-11-29T05:37:49.525Z,59.32
2022-11-29T05:40:24.146Z,59.15
2022-11-29T05:42:54.933Z,59.16
2022-11-29T05:45:25.966Z,58.89
2022-11-29T05:48:10.175Z,59.04
2022-11-29T05:50:49.578Z,58.99
2022-11-29T05:53:25.464Z,59.24
2022-11-29T05:56:23.656Z,59.49
2022-11-29T05:58:55.818Z,58.83
2022-11-29T06:01:41.828Z,59.11
2022-11-29T06:04:16.954Z,59.16
2022-11-29T06:06:48.078Z,59.28
2022-11-29T06:09:29.052Z,59.08
2022-11-29T06:12:21.030Z,59.13
2022-11-29T06:14:51.070Z,59.21
2022-11-29T06:17:39.633Z,59.34
2022-11-29T06:20:15.489Z,59.25
2022-11-29T06:22:58.344Z,59.37
2022-11-29T06:25:38.201Z,59.36
2022-11-29T06:28:42.836Z,59.15
2022-11-29T06:31:15.553Z,59.32
2022-11-29T06:33:56.462Z,59.08
2022-11-29T06:36:26.083Z,59.39
2022-11-29T06:38:53.284Z,59.42
2022-11-29T06:41:22.028Z,59.49
2022-11-29T06:43:49.348Z,59.34
2022-11-29T06:46:16.140Z,59.12
2022-11-29T06:48:51.520Z,59.09
2022-11-29T06:52:07.075Z,59.47
2022-11-29T06:54:40.146Z,59.35
2022-11-29T06:57:24.963Z,59.46
2022-11-29T06:59:52.029Z,59.05
2022-11-29T07:02:37.111Z,58.86
2022-11-29T07:05:15.479Z,58.76
2022-11-29T07:07:42.585Z,58.45
2022-11-29T07:10:17.205Z,58.70
2022-11-29T07:12:47.407Z,58.68
2022-11-29T07:15:19.472Z,58.63
2022-11-29T07:17:59.586Z,58.49
2022-11-29T07:20:41.956Z,58.46
2022-11-29T07:23:33.512Z,58.67
2022-11-29T07:26:00.511Z,58.38
2022-11-29T07:28:50.411Z,58.95
2022-11-29T07:31:49.731Z,58.56
2022-11-29T07:34:24.664Z,58.49
2022-11-29T07:37:07.100Z,58.72
2022-11-29T07:39:49.092Z,58.81
2022-11-29T07:42:34.477Z,58.62
2022-11-29T07:45:24.537Z,58.71
2022-11-29T07:47:51.674Z,58.37
2022-11-29T07:50:18.495Z,58.31
2022-11-29T07:52:45.725Z,58.74
2022-11-29T07:55:18.455Z,58.65
2022-11-29T07:57:46.876Z,58.63
2022-11-29T08:00:14.235Z,58.69
2022-11-29T08:02:41.398Z,58.78
2022-11-29T08:05:08.848Z,58.84
2022-11-29T08:07:37.110Z,58.66
2022-11-29T08:10:04.943Z,58.65
2022-11-29T08:12:32.072Z,58.98
2022-11-29T08:14:58.810Z,58.74
2022-11-29T08:17:26.160Z,58.69
2022-11-29T08:19:52.961Z,58.66
2022-11-29T08:22:20.023Z,58.66
2022-11-29T08:24:47.174Z,58.80
2022-11-29T08:27:14.512Z,58.94
2022-11-29T08:29:41.254Z,58.92
2022-11-29T08:32:09.068Z,58.82
2022-11-29T08:34:35.846Z,58.90
2022-11-29T08:37:02.888Z,58.99
2022-11-29T08:39:29.600Z,58.88
2022-11-29T08:41:56.595Z,58.72
2022-11-29T08:44:23.787Z,58.95
2022-11-29T08:47:09.368Z,58.60
2022-11-29T08:49:56.100Z,58.56
2022-11-29T08:52:41.471Z,59.02
2022-11-29T08:55:08.637Z,59.05
2022-11-29T08:57:40.446Z,58.87
2022-11-29T09:00:08.143Z,58.76
2022-11-29T09:02:36.246Z,59.00
2022-11-29T09:05:04.194Z,58.92
2022-11-29T09:07:31.294Z,58.96
2022-11-29T09:09:58.168Z,59.29
2022-11-29T09:12:25.319Z,58.88
2022-11-29T09:14:52.051Z,59.00
2022-11-29T09:17:19.035Z,59.21
2022-11-29T09:19:45.777Z,59.29
2022-11-29T09:22:12.999Z,59.17
2022-11-29T09:24:39.686Z,59.19
2022-11-29T09:27:06.795Z,59.19
2022-11-29T09:29:33.502Z,59.09
2022-11-29T09:32:00.650Z,58.92
2022-11-29T09:34:27.583Z,59.06
2022-11-29T09:36:54.816Z,59.05
2022-11-29T09:39:21.514Z,59.09
2022-11-29T09:42:03.974Z,59.18
2022-11-29T09:44:50.106Z,58.70
2022-11-29T09:47:38.002Z,58.92
2022-11-29T09:50:16.891Z,59.14
2022-11-29T09:52:46.892Z,59.04
2022-11-29T09:55:44.638Z,59.20
2022-11-29T09:58:14.389Z,58.88
2022-11-29T10:01:01.689Z,58.97
2022-11-29T10:03:28.807Z,58.96
2022-11-29T10:06:26.747Z,59.00
2022-11-29T10:09:05.019Z,59.04
2022-11-29T10:11:59.912Z,58.86
2022-11-29T10:14:48.596Z,58.88
2022-11-29T10:17:56.751Z,58.82
2022-11-29T10:20:25.795Z,59.05
2022-11-29T10:22:57.660Z,58.96
2022-11-29T10:25:26.622Z,58.87
2022-11-29T10:27:53.392Z,58.87
2022-11-29T10:30:20.847Z,58.61
2022-11-29T10:32:50.939Z,58.96
2022-11-29T10:35:19.295Z,58.54
2022-11-29T10:38:07.855Z,58.79
2022-11-29T10:40:34.595Z,58.73
2022-11-29T10:43:01.321Z,58.74
2022-11-29T10:45:40.609Z,58.58
2022-11-29T10:48:17.714Z,58.83
2022-11-29T10:50:45.663Z,58.87
2022-11-29T10:53:14.063Z,58.71
2022-11-29T10:55:49.007Z,58.84
2022-11-29T10:58:16.890Z,58.38
2022-11-29T11:00:44.633Z,58.62
2022-11-29T11:03:25.506Z,58.51
2022-11-29T11:06:03.721Z,58.66
2022-11-29T11:08:31.214Z,58.58
2022-11-29T11:11:01.788Z,58.29
2022-11-29T11:13:30.080Z,58.51
2022-11-29T11:16:08.852Z,58.33
2022-11-29T11:18:36.002Z,58.40
2022-11-29T11:21:03.169Z,58.32
2022-11-29T11:23:31.442Z,58.43
2022-11-29T11:26:06.301Z,58.47
2022-11-29T11:29:00.067Z,58.35
2022-11-29T11:31:31.920Z,58.49
2022-11-29T11:34:34.144Z,58.42
2022-11-29T11:37:22.950Z,57.98
2022-11-29T11:39:51.781Z,58.29
2022-11-29T11:42:39.419Z,58.47
2022-11-29T11:45:09.216Z,58.14
2022-11-29T11:47:38.154Z,58.03
2022-11-29T11:50:14.900Z,58.29
2022-11-29T11:52:58.356Z,58.22
2022-11-29T11:55:36.312Z,58.19
2022-11-29T11:58:12.591Z,58.05
2022-11-29T12:03:47.569Z,58.15
2022-11-29T12:06:26.163Z,58.02
2022-11-29T12:08:55.976Z,57.82
2022-11-29T12:11:22.782Z,58.23
2022-11-29T12:13:52.844Z,58.23
2022-11-29T12:16:32.300Z,57.88
2022-11-29T12:19:17.855Z,57.75
2022-11-29T12:21:46.321Z,58.58
2022-11-29T12:24:27.152Z,57.84
2022-11-29T12:26:57.672Z,58.22
2022-11-29T12:29:27.152Z,58.22
2022-11-29T12:32:06.333Z,58.14
2022-11-29T12:34:55.095Z,57.98
2022-11-29T12:37:37.155Z,57.94
2022-11-29T12:40:13.251Z,57.88
2022-11-29T12:42:58.553Z,57.93
2022-11-29T12:45:28.651Z,58.14
2022-11-29T12:48:20.226Z,57.72
2022-11-29T12:50:57.177Z,57.94
2022-11-29T12:53:33.878Z,57.76
2022-11-29T12:56:22.034Z,57.60
2022-11-29T12:59:21.097Z,57.69
2022-11-29T13:01:53.851Z,57.53
2022-11-29T13:04:38.961Z,57.34
2022-11-29T13:07:26.422Z,57.57
2022-11-29T13:10:02.766Z,57.22
2022-11-29T13:13:05.204Z,57.53
2022-11-29T13:15:55.139Z,57.20
2022-11-29T13:18:47.410Z,57.30
2022-11-29T13:21:16.150Z,57.55
2022-11-29T13:24:07.784Z,57.47
2022-11-29T13:26:33.374Z,57.48
2022-11-29T13:29:00.434Z,57.37
2022-11-29T13:31:27.225Z,57.24
2022-11-29T13:34:08.134Z,57.28
2022-11-29T13:36:55.168Z,57.39
2022-11-29T13:39:43.678Z,57.27
2022-11-29T13:42:33.417Z,57.62
2022-11-29T13:45:18.709Z,57.85
2022-11-29T13:47:52.944Z,57.80
2022-11-29T13:50:39.442Z,57.42
2022-11-29T13:53:17.849Z,57.48
2022-11-29T13:56:00.605Z,57.54
2022-11-29T13:58:39.732Z,57.10
2022-11-29T14:01:14.439Z,57.35
2022-11-29T14:03:42.618Z,57.88
2022-11-29T14:06:31.684Z,57.47
2022-11-29T14:09:21.156Z,57.54
2022-11-29T14:11:51.387Z,57.59
2022-11-29T14:14:31.396Z,57.66
2022-11-29T14:17:02.556Z,57.72
2022-11-29T14:19:36.518Z,57.67
2022-11-29T14:22:03.385Z,57.73
2022-11-29T14:24:35.283Z,57.92
2022-11-29T14:27:08.923Z,57.92
2022-11-29T14:29:54.146Z,58.10
2022-11-29T14:32:26.836Z,58.02
2022-11-29T14:34:56.825Z,57.85
2022-11-29T14:37:41.204Z,57.78
2022-11-29T14:40:31.917Z,57.89
2022-11-29T14:42:59.583Z,57.75
2022-11-29T14:45:27.837Z,57.99
2022-11-29T14:47:54.601Z,57.85
2022-11-29T14:50:31.061Z,58.08
2022-11-29T14:52:57.824Z,58.05
2022-11-29T14:55:24.898Z,58.14
2022-11-29T14:57:57.764Z,58.03
2022-11-29T15:00:27.101Z,57.92
2022-11-29T15:03:01.372Z,57.91
2022-11-29T15:05:35.699Z,58.13
2022-11-29T15:08:21.088Z,57.88
2022-11-29T15:10:57.675Z,57.68
2022-11-29T15:13:31.269Z,58.02
2022-11-29T15:16:17.043Z,57.88
2022-11-29T15:19:30.360Z,57.65
2022-11-29T15:22:07.450Z,57.61
2022-11-29T15:24:58.119Z,58.00
2022-11-29T15:27:25.202Z,57.70
2022-11-29T15:29:52.915Z,57.31
2022-11-29T15:32:28.720Z,57.61
2022-11-29T15:34:55.601Z,57.37
2022-11-29T15:37:23.465Z,57.33
2022-11-29T15:40:13.680Z,57.34
2022-11-29T15:42:44.850Z,56.99
2022-11-29T15:45:26.132Z,57.43
2022-11-29T15:47:53.617Z,57.18
2022-11-29T15:50:29.347Z,57.11
2022-11-29T15:53:01.436Z,57.35
2022-11-29T15:55:28.130Z,57.21
2022-11-29T15:57:55.384Z,57.15
2022-11-29T16:00:24.228Z,57.33
2022-11-29T16:02:56.198Z,57.23
2022-11-29T16:05:25.260Z,57.25
2022-11-29T16:07:57.576Z,57.41
2022-11-29T16:10:29.242Z,57.32
2022-11-29T16:13:23.584Z,57.36
2022-11-29T16:16:16.180Z,57.45
2022-11-29T16:18:44.784Z,57.38
2022-11-29T16:21:23.796Z,57.21
2022-11-29T16:23:50.999Z,57.15
2022-11-29T16:26:20.047Z,57.46
2022-11-29T16:28:48.765Z,57.51
2022-11-29T16:31:39.315Z,57.32
2022-11-29T16:34:31.315Z,57.60
2022-11-29T16:37:06.609Z,57.22
2022-11-29T16:39:34.484Z,57.66
2022-11-29T16:42:30.861Z,57.53
2022-11-29T16:45:27.255Z,57.77
2022-11-29T16:48:00.192Z,57.60
2022-11-29T16:50:31.122Z,57.57
2022-11-29T16:53:37.031Z,57.60
2022-11-29T16:56:17.394Z,57.60
2022-11-29T16:59:25.537Z,57.45
2022-11-29T17:01:34.654Z,57.56
2022-11-29T17:04:01.527Z,57.57
2022-11-29T17:06:29.103Z,57.55
2022-11-29T17:08:56.727Z,57.56
2022-11-29T17:11:23.931Z,57.69
2022-11-29T17:13:50.993Z,57.69
2022-11-29T17:16:20.229Z,57.66
2022-11-29T17:18:47.139Z,57.66
2022-11-29T17:21:20.302Z,57.44
2022-11-29T17:23:47.307Z,57.78
2022-11-29T17:26:15.527Z,57.68
2022-11-29T17:28:43.534Z,57.63
2022-11-29T17:31:15.065Z,57.60
2022-11-29T17:33:41.855Z,57.99
2022-11-29T17:36:15.309Z,57.75
2022-11-29T17:38:42.902Z,57.76
2022-11-29T17:41:11.967Z,57.60
2022-11-29T17:43:38.865Z,57.75
2022-11-29T17:46:10.078Z,57.78
2022-11-29T17:48:38.494Z,57.55
2022-11-29T17:51:17.293Z,57.66
2022-11-29T17:53:54.087Z,57.70
2022-11-29T17:56:22.850Z,57.38
2022-11-29T17:58:53.654Z,57.81
2022-11-29T18:01:22.795Z,57.75
2022-11-29T18:03:52.139Z,57.50
2022-11-29T18:06:20.852Z,57.81
2022-11-29T18:08:49.029Z,57.72
2022-11-29T18:11:17.056Z,57.83
2022-11-29T18:13:43.810Z,57.86
2022-11-29T18:16:18.807Z,57.83
2022-11-29T18:18:45.797Z,57.70
2022-11-29T18:21:13.073Z,57.84
2022-11-29T18:23:41.084Z,57.75
2022-11-29T18:26:11.101Z,57.92
2022-11-29T18:28:38.725Z,57.67
2022-11-29T18:31:12.613Z,57.68
2022-11-29T18:33:40.128Z,57.81
2022-11-29T18:36:17.953Z,57.52
2022-11-29T18:38:45.176Z,57.50
2022-11-29T18:41:19.587Z,57.63
2022-11-29T18:43:46.985Z,57.30
2022-11-29T18:46:18.705Z,57.30
2022-11-29T18:48:46.424Z,57.17
2022-11-29T18:51:15.018Z,57.08
2022-11-29T18:53:42.131Z,57.41
2022-11-29T18:56:10.069Z,57.06
2022-11-29T18:58:36.932Z,57.36
2022-11-29T19:01:05.074Z,57.17
2022-11-29T19:03:42.510Z,57.44
2022-11-29T19:06:11.751Z,57.35
2022-11-29T19:08:38.765Z,57.38
2022-11-29T19:11:10.546Z,57.48
2022-11-29T19:13:37.416Z,57.23
2022-11-29T19:16:05.123Z,57.88
2022-11-29T19:18:31.906Z,57.70
2022-11-29T19:21:05.752Z,57.38
2022-11-29T19:23:32.539Z,57.58
2022-11-29T19:26:10.563Z,57.77
2022-11-29T19:28:41.024Z,57.39
2022-11-29T19:31:08.565Z,57.84
2022-11-29T19:33:35.963Z,57.24
2022-11-29T19:36:13.458Z,57.33
2022-11-29T19:38:40.519Z,57.24
2022-11-29T19:41:21.601Z,57.36
2022-11-29T19:43:48.707Z,57.50
2022-11-29T19:46:17.443Z,57.36
2022-11-29T19:48:44.428Z,57.36
2022-11-29T19:51:15.674Z,57.17
2022-11-29T19:53:42.462Z,57.46
2022-11-29T19:56:12.351Z,57.25
2022-11-29T19:58:39.073Z,57.53
2022-11-29T20:01:06.158Z,57.68
2022-11-29T20:03:33.273Z,57.53
2022-11-29T20:06:00.531Z,57.38
2022-11-29T20:08:27.517Z,57.73
2022-11-29T20:10:54.821Z,57.52
2022-11-29T20:13:21.968Z,57.45
2022-11-29T20:15:49.014Z,57.59
2022-11-29T20:18:15.848Z,57.49
2022-11-29T20:20:42.982Z,57.76
2022-11-29T20:23:09.724Z,57.32
2022-11-29T20:25:36.830Z,57.28
2022-11-29T20:28:04.214Z,57.57
2022-11-29T20:30:31.295Z,57.50
2022-11-29T20:32:58.180Z,57.46
2022-11-29T20:35:25.431Z,57.48
2022-11-29T20:38:40.541Z,57.52
2022-11-29T20:41:47.071Z,57.58
2022-11-29T20:44:16.651Z,57.92
2022-11-29T20:46:43.891Z,57.63
2022-11-29T20:49:13.934Z,57.36
2022-11-29T20:51:44.705Z,57.80
2022-11-29T20:54:11.445Z,57.42
2022-11-29T20:56:38.518Z,57.66
2022-11-29T20:59:05.236Z,57.50
2022-11-29T21:01:32.286Z,58.03
2022-11-29T21:03:59.123Z,57.79
2022-11-29T21:06:26.244Z,57.70
2022-11-29T21:08:53.740Z,57.50
2022-11-29T21:11:21.054Z,57.59
2022-11-29T21:13:48.184Z,57.47
2022-11-29T21:16:15.603Z,57.40
2022-11-29T21:18:42.640Z,57.47
2022-11-29T21:21:28.804Z,57.52
2022-11-29T21:24:03.523Z,57.75
2022-11-29T21:26:42.517Z,57.62
2022-11-29T21:29:18.168Z,57.88
2022-11-29T21:31:46.019Z,57.80
2022-11-29T21:34:12.820Z,57.69
2022-11-29T21:36:39.968Z,57.61
2022-11-29T21:39:07.555Z,57.90
2022-11-29T21:41:34.606Z,57.67
2022-11-29T21:44:08.988Z,57.64
2022-11-29T21:46:36.258Z,57.48
2022-11-29T21:49:03.161Z,57.80
2022-11-29T21:51:30.228Z,57.42
2022-11-29T21:53:56.977Z,57.84
2022-11-29T21:56:24.094Z,58.74
2022-11-29T21:58:50.810Z,59.17
2022-11-29T22:01:18.983Z,59.24
2022-11-29T22:03:45.881Z,58.80
2022-11-29T22:06:15.228Z,58.88
2022-11-29T22:08:43.540Z,58.48
2022-11-29T22:11:12.752Z,58.32
2022-11-29T22:14:00.311Z,58.61
2022-11-29T22:16:27.962Z,58.09
2022-11-29T22:18:54.896Z,58.45
2022-11-29T22:21:21.986Z,58.39
2022-11-29T22:23:48.711Z,58.16
2022-11-29T22:26:15.779Z,58.42
2022-11-29T22:28:42.527Z,58.29
2022-11-29T22:31:11.489Z,58.53
2022-11-29T22:33:38.547Z,58.39
2022-11-29T22:36:07.026Z,58.46
2022-11-29T22:38:33.891Z,58.42
2022-11-29T22:41:08.226Z,58.27
2022-11-29T22:43:35.031Z,58.36
2022-11-29T22:46:05.977Z,58.31
2022-11-29T22:48:38.222Z,58.49
2022-11-29T22:51:12.557Z,58.57
2022-11-29T22:53:40.390Z,58.18
2022-11-29T22:56:08.497Z,58.28
2022-11-29T22:58:35.245Z,58.53
2022-11-29T23:01:06.731Z,58.64
2022-11-29T23:03:37.330Z,58.42
2022-11-29T23:06:05.246Z,58.72
2022-11-29T23:08:32.101Z,58.38
2022-11-29T23:10:59.226Z,58.57
2022-11-29T23:13:25.993Z,58.39
2022-11-29T23:15:53.102Z,58.81
2022-11-29T23:18:19.846Z,58.48
2022-11-29T23:20:46.868Z,58.23
2022-11-29T23:23:13.647Z,58.79
2022-11-29T23:25:48.774Z,58.73
2022-11-29T23:28:16.569Z,58.88
2022-11-29T23:30:43.653Z,58.76
2022-11-29T23:33:10.433Z,58.76
2022-11-29T23:35:37.465Z,58.85
2022-11-29T23:38:04.617Z,58.86
2022-11-29T23:40:31.701Z,58.92
2022-11-29T23:42:58.473Z,58.76
2022-11-29T23:45:25.534Z,58.69
2022-11-29T23:47:52.351Z,58.66
2022-11-29T23:50:19.399Z,58.62
2022-11-29T23:52:51.645Z,58.81
2022-11-29T23:55:19.879Z,58.74
2022-11-29T23:57:46.628Z,58.75
